AirNav   Bose ProFlight Series 2 Headset
 
 956 users online  

40ID Camas Creek Ranch Airport
Fairfield, Idaho, USA

GOING TO FAIRFIELD?


FAA INFORMATION EFFECTIVE 30 JANUARY 2020

Location

FAA Identifier: 40ID
Lat/Long: 43-18-51.2000N 114-54-18.8000W
43-18.853333N 114-54.313333W
43.3142222,-114.9052222
(estimated)
Elevation: 5075 ft. / 1547 m
From city: 6 miles WSW of FAIRFIELD, ID
Time zone: UTC -7 (UTC -6 during Daylight Saving Time)
Zip code: 83322

Airport Operations

Airport use: Private use. Permission required prior to landing
Activation date: 11/2015
Control tower: no
ARTCC: SALT LAKE CITY CENTER
FSS: BOISE FLIGHT SERVICE STATION
Attendance: UNATNDD
Wind indicator: no
Segmented circle: no

Nearby radio navigation aids

NDB name  Hdg/Dist  Freq  Var  ID
HAILEY255/28.922013EHLE .... .-.. .

Airport Services

Runway Information

Runway 10/28

Dimensions: 2640 x 50 ft. / 805 x 15 m
Surface: turf
RUNWAY 10  RUNWAY 28
Traffic pattern: leftleft

Airport Ownership and Management from official FAA records

Ownership: Privately-owned
Owner: SV RANCH LLC
PO BOX 1607
BELLEVUE, WA 98009
Phone 208-764-3904
Manager: ROD GONSALES
ROUTE 1, BOX 2070
CORRAL, ID 83322
Phone 208-764-3904

Additional Remarks

FOR CD CTC SALT LAKE ARTCC AT 801-320-2568.

Instrument Procedures

There are no published instrument procedures at 40ID.

Some nearby airports with instrument procedures:

KGNG - Gooding Municipal Airport (25 nm S)
KSUN - Friedman Memorial Airport (29 nm NE)
U76 - Mountain Home Municipal Airport (38 nm W)
KJER - Jerome County Airport (40 nm SE)
KMUO - Mountain Home Air Force Base (45 nm W)
 
Loc | Ops | Rwys | IFR | FBO | Links
Com | Nav | Svcs | Stats | Notes
Aerial photo
No photo
 
Airport distance calculator
Flying to Camas Creek Ranch Airport? Find the distance to fly.

From to 40ID

Sunrise and sunset
Times for 25-Feb-2020
 Local
(UTC-7)
 Zulu
(UTC)
Morning civil twilight06:5513:55
Sunrise07:2314:23
Sunset18:2201:22
Evening civil twilight18:5101:51

Current date and time
Zulu (UTC)  25-Feb-2020 13:03:19
Local (UTC-7)  25-Feb-2020 06:03:19
 
METAR
KSUN 
29nm NE 
251235Z AUTO 31008KT 10SM CLR M08/M14 A3045 RMK AO2
KJER 
41nm SE 
251253Z AUTO 14004KT 10SM CLR M07/M09 A3049 RMK AO2 SLP358 T10671094
KMUO 
45nm W 
251258Z AUTO 33006KT 10SM CLR M06/M06 A3054 RMK AO2 SLP370 T10581059 $
TAF
KSUN 
29nm NE 
251120Z 2512/2618 33008KT P6SM SKC FM251900 15008KT P6SM FEW150 FM260300 31007KT P6SM SCT150 AMD LTD TO CLD VIS AND WIND TIL 251400
NOTAMs
Click for the latest NOTAMs
NOTAMs are issued by the DoD/FAA and will open in a separate window not controlled by AirNav.

 

 
 

Would you like to see your business listed on this page?

 If your business provides an interesting product or service to pilots, flight crews, aircraft, or users of the Camas Creek Ranch Airport, you should consider listing it here.  To start the listing process, click on the button below
 
Add a business
 

Other Pages about Camas Creek Ranch Airport

Update a link
 
Copyright © AirNav, LLC. All rights reserved. Privacy Policy  Contact